createdAt,value
2023-04-29T00:00:12.419Z,57.02
2023-04-29T00:02:40.611Z,58.17
2023-04-29T00:05:07.988Z,58.83
2023-04-29T00:07:36.515Z,60.79
2023-04-29T00:10:03.596Z,61.39
2023-04-29T00:12:32.467Z,60.43
2023-04-29T00:15:00.848Z,60.60
2023-04-29T00:17:28.058Z,60.30
2023-04-29T00:19:54.966Z,59.76
2023-04-29T00:22:22.742Z,58.34
2023-04-29T00:24:49.426Z,58.04
2023-04-29T00:27:17.722Z,57.30
2023-04-29T00:29:45.093Z,57.56
2023-04-29T00:32:12.244Z,58.26
2023-04-29T00:34:39.169Z,57.54
2023-04-29T00:37:06.030Z,57.87
2023-04-29T00:39:32.791Z,59.91
2023-04-29T00:41:59.743Z,60.38
2023-04-29T00:44:26.500Z,61.52
2023-04-29T00:46:53.139Z,61.79
2023-04-29T00:49:20.452Z,61.08
2023-04-29T00:51:47.982Z,61.53
2023-04-29T00:54:15.269Z,60.77
2023-04-29T00:56:45.454Z,59.58
2023-04-29T00:59:12.803Z,59.72
2023-04-29T01:01:39.700Z,60.12
2023-04-29T01:04:08.157Z,59.72
2023-04-29T01:06:42.571Z,59.27
2023-04-29T01:09:12.051Z,59.06
2023-04-29T01:11:54.356Z,60.59
2023-04-29T01:14:23.385Z,60.99
2023-04-29T01:16:59.641Z,60.39
2023-04-29T01:19:55.398Z,60.75
2023-04-29T01:22:22.768Z,60.48
2023-04-29T01:24:50.396Z,61.50
2023-04-29T01:27:23.632Z,62.16
2023-04-29T01:29:59.135Z,62.40
2023-04-29T01:32:43.016Z,62.26
2023-04-29T01:35:28.928Z,62.90
2023-04-29T01:38:03.224Z,63.41
2023-04-29T01:40:37.913Z,63.75
2023-04-29T01:43:15.825Z,64.57
2023-04-29T01:45:46.392Z,64.16
2023-04-29T01:48:15.647Z,64.10
2023-04-29T01:50:42.387Z,62.80
2023-04-29T01:53:13.286Z,62.40
2023-04-29T01:55:40.377Z,62.16
2023-04-29T01:58:36.249Z,61.62
2023-04-29T02:01:22.990Z,62.12
2023-04-29T02:03:49.900Z,61.56
2023-04-29T02:06:16.893Z,61.17
2023-04-29T02:08:46.245Z,61.67
2023-04-29T02:11:13.121Z,61.04
2023-04-29T02:13:41.692Z,61.05
2023-04-29T02:16:10.716Z,61.00
2023-04-29T02:18:41.043Z,60.70
2023-04-29T02:21:07.914Z,61.28
2023-04-29T02:23:35.872Z,61.95
2023-04-29T02:26:05.582Z,61.27
2023-04-29T02:28:33.208Z,61.87
2023-04-29T02:30:59.922Z,62.01
2023-04-29T02:33:26.829Z,61.18
2023-04-29T02:35:53.468Z,60.57
2023-04-29T02:38:20.207Z,59.73
2023-04-29T02:40:47.727Z,59.46
2023-04-29T02:43:15.378Z,60.51
2023-04-29T02:45:42.208Z,60.69
2023-04-29T02:48:09.099Z,61.05
2023-04-29T02:50:54.492Z,61.29
2023-04-29T02:53:40.139Z,60.80
2023-04-29T02:56:07.037Z,60.92
2023-04-29T02:58:33.812Z,60.64
2023-04-29T03:01:00.772Z,61.31
2023-04-29T03:03:27.744Z,60.42
2023-04-29T03:05:54.918Z,59.69
2023-04-29T03:08:22.396Z,60.58
2023-04-29T03:10:49.206Z,60.20
2023-04-29T03:13:16.090Z,59.93
2023-04-29T03:15:44.704Z,59.45
2023-04-29T03:18:13.387Z,59.43
2023-04-29T03:20:40.374Z,59.13
2023-04-29T03:23:07.195Z,59.46
2023-04-29T03:25:34.116Z,58.69
2023-04-29T03:28:00.980Z,57.75
2023-04-29T03:30:27.781Z,58.75
2023-04-29T03:32:57.508Z,58.60
2023-04-29T03:35:25.565Z,59.44
2023-04-29T03:38:15.099Z,59.44
2023-04-29T03:40:42.786Z,59.71
2023-04-29T03:43:09.576Z,58.87
2023-04-29T03:45:37.070Z,58.83
2023-04-29T03:48:06.247Z,58.54
2023-04-29T03:50:33.081Z,59.15
2023-04-29T03:52:59.891Z,59.30
2023-04-29T03:55:27.185Z,58.27
2023-04-29T03:57:53.966Z,58.59
2023-04-29T04:00:21.005Z,58.25
2023-04-29T04:02:53.152Z,58.69
2023-04-29T04:05:21.075Z,59.19
2023-04-29T04:07:53.228Z,61.32
2023-04-29T04:10:46.778Z,61.25
2023-04-29T04:13:37.265Z,60.10
2023-04-29T04:16:05.178Z,61.08
2023-04-29T04:18:31.911Z,61.02
2023-04-29T04:20:58.850Z,61.23
2023-04-29T04:23:26.394Z,60.77
2023-04-29T04:25:54.440Z,61.67
2023-04-29T04:28:44.176Z,63.01
2023-04-29T04:31:17.696Z,62.79
2023-04-29T04:33:45.521Z,61.79
2023-04-29T04:36:13.097Z,61.23
2023-04-29T04:38:39.883Z,60.88
2023-04-29T04:41:10.886Z,61.31
2023-04-29T04:43:41.011Z,60.80
2023-04-29T04:46:16.879Z,60.94
2023-04-29T04:49:04.099Z,60.16
2023-04-29T04:51:33.459Z,60.63
2023-04-29T04:54:00.205Z,60.86
2023-04-29T04:56:29.332Z,60.23
2023-04-29T04:58:56.491Z,61.02
2023-04-29T05:01:24.371Z,60.45
2023-04-29T05:03:51.389Z,59.70
2023-04-29T05:06:18.362Z,60.12
2023-04-29T05:08:47.115Z,60.49
2023-04-29T05:11:18.476Z,59.88
2023-04-29T05:13:49.788Z,60.32
2023-04-29T05:16:18.199Z,59.90
2023-04-29T05:18:47.123Z,60.38
2023-04-29T05:21:17.098Z,60.52
2023-04-29T05:23:44.696Z,59.95
2023-04-29T05:26:12.424Z,60.84
2023-04-29T05:28:39.905Z,61.22
2023-04-29T05:31:08.333Z,61.00
2023-04-29T05:33:35.885Z,61.49
2023-04-29T05:36:02.917Z,60.86
2023-04-29T05:38:29.848Z,60.84
2023-04-29T05:41:04.517Z,61.34
2023-04-29T05:43:43.659Z,60.49
2023-04-29T05:46:13.493Z,61.12
2023-04-29T05:48:40.503Z,60.93
2023-04-29T05:51:07.239Z,61.11
2023-04-29T05:53:35.854Z,60.63
2023-04-29T05:56:06.561Z,61.11
2023-04-29T05:58:33.412Z,60.59
2023-04-29T06:01:00.331Z,60.40
2023-04-29T06:03:28.360Z,60.42
2023-04-29T06:06:16.410Z,60.11
2023-04-29T06:09:03.165Z,61.33
2023-04-29T06:11:32.767Z,61.03
2023-04-29T06:14:01.633Z,61.20
2023-04-29T06:16:28.948Z,60.82
2023-04-29T06:18:55.990Z,60.73
2023-04-29T06:21:22.750Z,60.27
2023-04-29T06:23:49.443Z,59.91
2023-04-29T06:26:17.538Z,59.75
2023-04-29T06:28:44.627Z,60.40
2023-04-29T06:31:11.801Z,59.43
2023-04-29T06:33:38.983Z,60.11
2023-04-29T06:36:06.247Z,59.88
2023-04-29T06:38:35.655Z,59.25
2023-04-29T06:41:21.687Z,59.66
2023-04-29T06:44:00.448Z,59.52
2023-04-29T06:46:36.408Z,58.84
2023-04-29T06:49:07.716Z,58.51
2023-04-29T06:51:35.751Z,58.50
2023-04-29T06:54:02.679Z,57.68
2023-04-29T06:56:29.636Z,57.96
2023-04-29T06:58:56.339Z,57.92
2023-04-29T07:01:23.631Z,57.55
2023-04-29T07:03:51.437Z,56.54
2023-04-29T07:06:19.300Z,56.61
2023-04-29T07:08:46.124Z,55.64
2023-04-29T07:11:15.368Z,56.17
2023-04-29T07:13:42.046Z,56.21
2023-04-29T07:16:20.581Z,55.73
2023-04-29T07:18:49.459Z,56.27
2023-04-29T07:21:16.245Z,56.68
2023-04-29T07:23:43.403Z,55.84
2023-04-29T07:26:14.315Z,56.08
2023-04-29T07:28:47.262Z,55.29
2023-04-29T07:31:17.931Z,54.13
2023-04-29T07:33:46.152Z,54.05
2023-04-29T07:36:13.276Z,53.57
2023-04-29T07:38:40.769Z,52.38
2023-04-29T07:41:07.877Z,54.07
2023-04-29T07:43:35.438Z,54.04
2023-04-29T07:46:02.276Z,54.21
2023-04-29T07:48:29.555Z,53.90
2023-04-29T07:50:58.463Z,53.29
2023-04-29T07:53:31.758Z,53.00
2023-04-29T07:55:58.704Z,53.91
2023-04-29T07:58:32.864Z,51.65
2023-04-29T08:01:11.731Z,53.26
2023-04-29T08:03:41.489Z,51.27
2023-04-29T08:06:09.791Z,52.13
2023-04-29T08:08:36.716Z,51.84
2023-04-29T08:11:03.905Z,51.68
2023-04-29T08:13:30.890Z,51.97
2023-04-29T08:15:57.945Z,51.54
2023-04-29T08:18:25.168Z,51.77
2023-04-29T08:20:52.069Z,52.55
2023-04-29T08:23:18.804Z,51.92
2023-04-29T08:25:45.861Z,51.07
2023-04-29T08:28:13.044Z,51.74
2023-04-29T08:30:40.958Z,51.16
2023-04-29T08:33:08.404Z,51.55
2023-04-29T08:35:37.678Z,51.25
2023-04-29T08:38:09.294Z,51.46
2023-04-29T08:40:41.453Z,51.68
2023-04-29T08:43:10.308Z,52.00
2023-04-29T08:45:37.563Z,49.85
2023-04-29T08:48:07.796Z,50.77
2023-04-29T08:50:41.876Z,49.37
2023-04-29T08:53:09.690Z,49.49
2023-04-29T08:55:41.526Z,49.79
2023-04-29T08:58:09.201Z,50.18
2023-04-29T09:00:36.745Z,49.45
2023-04-29T09:03:27.123Z,49.87
2023-04-29T09:05:56.449Z,49.03
2023-04-29T09:08:24.347Z,50.11
2023-04-29T09:10:55.142Z,50.08
2023-04-29T09:13:28.724Z,50.58
2023-04-29T09:15:56.124Z,50.39
2023-04-29T09:19:01.699Z,48.68
2023-04-29T09:21:32.381Z,49.18
2023-04-29T09:24:01.357Z,48.66
2023-04-29T09:26:43.610Z,51.22
2023-04-29T09:29:14.036Z,53.88
2023-04-29T09:31:42.952Z,49.72
2023-04-29T09:34:14.835Z,50.44
2023-04-29T09:36:41.853Z,53.21
2023-04-29T09:39:13.417Z,50.71
2023-04-29T09:41:41.571Z,50.05
2023-04-29T09:44:09.831Z,49.63
2023-04-29T09:46:37.529Z,47.15
2023-04-29T09:49:23.393Z,48.74
2023-04-29T09:51:58.409Z,49.07
2023-04-29T09:54:30.645Z,47.08
2023-04-29T09:56:59.445Z,47.22
2023-04-29T09:59:26.925Z,46.34
2023-04-29T10:01:56.635Z,47.24
2023-04-29T10:04:26.321Z,45.97
2023-04-29T10:06:55.280Z,44.79
2023-04-29T10:09:23.585Z,44.12
2023-04-29T10:11:52.139Z,43.05
2023-04-29T10:14:20.763Z,45.55
2023-04-29T10:16:50.883Z,46.39
2023-04-29T10:19:26.379Z,43.09
2023-04-29T10:21:55.880Z,44.08
2023-04-29T10:24:24.055Z,42.73
2023-04-29T10:26:52.745Z,44.56
2023-04-29T10:29:21.063Z,42.27
2023-04-29T10:31:49.866Z,43.64
2023-04-29T10:34:17.906Z,43.00
2023-04-29T10:36:46.137Z,42.64
2023-04-29T10:39:21.008Z,42.59
2023-04-29T10:41:47.834Z,43.63
2023-04-29T10:44:14.995Z,42.96
2023-04-29T10:46:41.762Z,43.38
2023-04-29T10:49:10.926Z,44.33
2023-04-29T10:51:45.590Z,45.85
2023-04-29T10:54:16.719Z,46.80
2023-04-29T10:56:51.970Z,48.13
2023-04-29T10:59:28.458Z,48.19
2023-04-29T11:01:55.321Z,47.76
2023-04-29T11:04:23.069Z,47.37
2023-04-29T11:06:53.099Z,44.66
2023-04-29T11:09:30.986Z,46.12
2023-04-29T11:11:59.153Z,44.15
2023-04-29T11:14:50.336Z,44.09
2023-04-29T11:17:20.447Z,44.15
2023-04-29T11:19:50.767Z,44.89
2023-04-29T11:22:23.337Z,42.37
2023-04-29T11:24:54.443Z,45.88
2023-04-29T11:27:25.534Z,41.60
2023-04-29T11:29:58.210Z,41.34
2023-04-29T11:32:29.754Z,40.24
2023-04-29T11:35:16.568Z,43.08
2023-04-29T11:37:45.807Z,42.48
2023-04-29T11:40:14.112Z,45.80
2023-04-29T11:42:43.870Z,53.72
2023-04-29T11:45:18.118Z,55.21
2023-04-29T11:47:46.663Z,58.53
2023-04-29T11:50:19.589Z,58.53
2023-04-29T11:52:54.939Z,60.93
2023-04-29T11:55:21.869Z,57.04
2023-04-29T11:57:52.448Z,55.59
2023-04-29T12:00:20.880Z,57.67
2023-04-29T12:02:54.669Z,63.06
2023-04-29T12:05:21.579Z,63.03
2023-04-29T12:07:51.225Z,67.63
2023-04-29T12:10:18.232Z,67.90
2023-04-29T12:12:46.325Z,68.96
2023-04-29T12:15:13.492Z,70.47
2023-04-29T12:17:41.002Z,70.98
2023-04-29T12:20:12.727Z,71.51
2023-04-29T12:22:39.749Z,72.46
2023-04-29T12:25:08.031Z,72.35
2023-04-29T12:27:36.515Z,73.81
2023-04-29T12:30:08.247Z,72.51
2023-04-29T12:32:35.123Z,69.74
2023-04-29T12:35:01.805Z,71.49
2023-04-29T12:37:28.585Z,70.63
2023-04-29T12:39:55.884Z,68.74
2023-04-29T12:42:22.633Z,68.64
2023-04-29T12:44:49.564Z,68.66
2023-04-29T12:47:17.580Z,68.65
2023-04-29T12:49:46.490Z,66.80
2023-04-29T12:52:13.763Z,66.67
2023-04-29T12:54:44.279Z,68.82
2023-04-29T12:57:12.456Z,69.12
2023-04-29T12:59:41.360Z,66.60
2023-04-29T13:02:08.479Z,67.14
2023-04-29T13:04:35.869Z,65.43
2023-04-29T13:07:04.463Z,65.06
2023-04-29T13:09:31.500Z,63.57
2023-04-29T13:11:59.602Z,63.47
2023-04-29T13:14:30.025Z,63.49
2023-04-29T13:16:59.912Z,60.09
2023-04-29T13:19:46.956Z,54.24
2023-04-29T13:22:15.555Z,53.59
2023-04-29T13:24:42.496Z,52.74
2023-04-29T13:27:10.307Z,52.81
2023-04-29T13:29:41.394Z,51.30
2023-04-29T13:32:08.926Z,48.10
2023-04-29T13:34:35.992Z,45.71
2023-04-29T13:37:02.858Z,50.58
2023-04-29T13:39:30.418Z,51.83
2023-04-29T13:41:59.156Z,49.39
2023-04-29T13:44:33.213Z,45.45
2023-04-29T13:47:07.530Z,44.38
2023-04-29T13:50:10.000Z,42.01
2023-04-29T13:55:14.818Z,43.46
2023-04-29T13:58:31.085Z,41.03
2023-04-29T14:01:01.417Z,40.80
2023-04-29T14:03:15.419Z,41.46
2023-04-29T14:05:42.493Z,44.05
2023-04-29T14:08:09.535Z,40.13
2023-04-29T14:10:37.147Z,38.72
2023-04-29T14:13:03.935Z,38.36
2023-04-29T14:15:30.908Z,39.29
2023-04-29T14:17:57.673Z,38.53
2023-04-29T14:20:24.470Z,40.95
2023-04-29T14:22:51.240Z,41.23
2023-04-29T14:25:18.501Z,41.68
2023-04-29T14:27:45.545Z,39.50
2023-04-29T14:30:12.765Z,38.49
2023-04-29T14:32:40.447Z,38.31
2023-04-29T14:35:09.569Z,39.88
2023-04-29T14:37:45.714Z,39.54
2023-04-29T14:40:12.849Z,40.56
2023-04-29T14:42:39.553Z,37.44
2023-04-29T14:45:06.961Z,35.95
2023-04-29T14:47:34.452Z,37.11
2023-04-29T14:50:04.145Z,37.90
2023-04-29T14:52:30.927Z,37.47
2023-04-29T14:54:58.849Z,36.89
2023-04-29T14:57:25.619Z,36.66
2023-04-29T14:59:53.422Z,37.09
2023-04-29T15:02:20.134Z,34.83
2023-04-29T15:04:46.997Z,35.48
2023-04-29T15:07:13.884Z,36.38
2023-04-29T15:09:43.128Z,36.95
2023-04-29T15:12:10.415Z,37.20
2023-04-29T15:14:37.339Z,37.47
2023-04-29T15:17:07.740Z,36.03
2023-04-29T15:19:35.560Z,36.43
2023-04-29T15:22:02.266Z,38.07
2023-04-29T15:27:16.373Z,34.88
2023-04-29T15:29:43.185Z,36.20
2023-04-29T15:32:11.601Z,37.49
2023-04-29T15:34:38.496Z,36.74
2023-04-29T15:37:06.779Z,36.08
2023-04-29T15:39:33.697Z,37.18
2023-04-29T15:42:00.670Z,35.52
2023-04-29T15:44:27.402Z,37.51
2023-04-29T15:46:55.036Z,37.25
2023-04-29T15:49:24.625Z,37.95
2023-04-29T15:51:52.257Z,37.76
2023-04-29T15:54:19.085Z,37.01
2023-04-29T15:56:46.703Z,37.02
2023-04-29T15:59:15.792Z,34.73
2023-04-29T16:01:42.702Z,36.11
2023-04-29T16:04:09.681Z,37.84
2023-04-29T16:06:36.934Z,38.11
2023-04-29T16:09:05.032Z,37.57
2023-04-29T16:11:33.734Z,37.36
2023-04-29T16:14:00.520Z,37.26
2023-04-29T16:16:27.366Z,36.21
2023-04-29T16:18:54.715Z,36.86
2023-04-29T16:21:21.687Z,35.94
2023-04-29T16:23:48.458Z,36.61
2023-04-29T16:26:15.265Z,35.02
2023-04-29T16:28:41.990Z,36.57
2023-04-29T16:31:10.113Z,34.34
2023-04-29T16:33:36.812Z,36.49
2023-04-29T16:36:04.014Z,35.58
2023-04-29T16:38:32.547Z,34.64
2023-04-29T16:40:59.390Z,34.01
2023-04-29T16:43:26.069Z,34.74
2023-04-29T16:45:52.940Z,34.00
2023-04-29T16:48:19.646Z,35.44
2023-04-29T16:50:49.180Z,33.38
2023-04-29T16:53:18.279Z,35.21
2023-04-29T16:55:46.258Z,34.08
2023-04-29T16:58:13.205Z,34.11
2023-04-29T17:00:42.192Z,33.83
2023-04-29T17:03:09.815Z,31.87
2023-04-29T17:05:37.329Z,32.92
2023-04-29T17:08:04.531Z,32.05
2023-04-29T17:10:31.435Z,32.36
2023-04-29T17:12:59.341Z,31.94
2023-04-29T17:15:26.503Z,32.86
2023-04-29T17:17:55.037Z,31.77
2023-04-29T17:20:21.976Z,31.85
2023-04-29T17:22:48.866Z,32.36
2023-04-29T17:25:16.214Z,31.32
2023-04-29T17:27:45.133Z,33.26
2023-04-29T17:30:12.541Z,34.11
2023-04-29T17:32:39.572Z,34.79
2023-04-29T17:35:08.169Z,34.03
2023-04-29T17:37:35.548Z,35.24
2023-04-29T17:40:03.084Z,35.01
2023-04-29T17:42:32.839Z,33.96
2023-04-29T17:44:59.692Z,33.01
2023-04-29T17:47:26.611Z,34.11
2023-04-29T17:49:53.482Z,33.06
2023-04-29T17:52:21.501Z,32.65
2023-04-29T17:54:48.876Z,33.21
2023-04-29T17:57:15.780Z,34.51
2023-04-29T17:59:42.463Z,33.29
2023-04-29T18:02:09.211Z,33.89
2023-04-29T18:04:37.380Z,34.42
2023-04-29T18:07:04.284Z,34.67
2023-04-29T18:09:31.058Z,34.06
2023-04-29T18:11:57.903Z,34.66
2023-04-29T18:14:24.813Z,35.70
2023-04-29T18:16:51.957Z,35.63
2023-04-29T18:19:18.750Z,34.92
2023-04-29T18:21:45.448Z,35.44
2023-04-29T18:24:12.776Z,35.61
2023-04-29T18:26:39.392Z,35.76
2023-04-29T18:29:06.241Z,34.15
2023-04-29T18:31:33.130Z,36.18
2023-04-29T18:33:59.943Z,36.36
2023-04-29T18:36:35.140Z,36.17
2023-04-29T18:39:03.213Z,36.92
2023-04-29T18:41:30.049Z,37.02
2023-04-29T18:43:56.773Z,36.46
2023-04-29T18:46:24.433Z,36.68
2023-04-29T18:48:51.390Z,35.76
2023-04-29T18:51:18.148Z,36.99
2023-04-29T18:53:44.972Z,37.13
2023-04-29T18:56:11.967Z,36.89
2023-04-29T18:58:40.289Z,37.04
2023-04-29T19:01:16.103Z,37.48
2023-04-29T19:03:42.912Z,37.12
2023-04-29T19:06:09.606Z,37.59
2023-04-29T19:08:39.051Z,37.12
2023-04-29T19:11:05.862Z,38.80
2023-04-29T19:13:32.577Z,38.10
2023-04-29T19:15:59.727Z,39.10
2023-04-29T19:18:33.116Z,39.14
2023-04-29T19:21:00.430Z,37.38
2023-04-29T19:23:27.354Z,39.11
2023-04-29T19:25:54.327Z,38.61
2023-04-29T19:28:21.090Z,38.74
2023-04-29T19:30:48.025Z,38.61
2023-04-29T19:33:14.952Z,38.63
2023-04-29T19:35:41.668Z,38.75
2023-04-29T19:38:08.516Z,38.99
2023-04-29T19:40:40.965Z,39.14
2023-04-29T19:43:07.752Z,40.61
2023-04-29T19:45:35.410Z,40.64
2023-04-29T19:48:02.919Z,40.63
2023-04-29T19:50:29.787Z,40.00
2023-04-29T19:52:56.707Z,40.68
2023-04-29T19:55:23.463Z,40.74
2023-04-29T19:57:51.365Z,40.05
2023-04-29T20:00:18.572Z,40.56
2023-04-29T20:02:53.629Z,40.10
2023-04-29T20:05:20.578Z,39.74
2023-04-29T20:07:49.806Z,39.92
2023-04-29T20:10:16.630Z,41.04
2023-04-29T20:12:43.357Z,41.95
2023-04-29T20:15:10.366Z,41.55
2023-04-29T20:17:37.640Z,41.40
2023-04-29T20:20:05.542Z,41.88
2023-04-29T20:22:32.265Z,40.69
2023-04-29T20:25:05.236Z,40.71
2023-04-29T20:27:35.416Z,42.72
2023-04-29T20:30:02.540Z,41.29
2023-04-29T20:32:30.804Z,42.40
2023-04-29T20:34:57.728Z,41.64
2023-04-29T20:37:25.260Z,42.27
2023-04-29T20:39:52.252Z,42.91
2023-04-29T20:42:19.152Z,41.51
2023-04-29T20:44:46.258Z,40.68
2023-04-29T20:47:13.161Z,41.83
2023-04-29T20:49:40.085Z,42.37
2023-04-29T20:52:09.880Z,41.95
2023-04-29T20:54:36.808Z,42.82
2023-04-29T20:57:05.934Z,42.25
2023-04-29T20:59:34.018Z,43.44
2023-04-29T21:02:00.848Z,43.32
2023-04-29T21:04:35.425Z,42.83
2023-04-29T21:07:03.798Z,42.84
2023-04-29T21:09:30.506Z,43.03
2023-04-29T21:11:59.427Z,42.13
2023-04-29T21:14:27.091Z,43.28
2023-04-29T21:16:55.195Z,43.15
2023-04-29T21:19:21.955Z,43.15
2023-04-29T21:21:49.586Z,42.74
2023-04-29T21:24:16.223Z,43.43
2023-04-29T21:26:45.249Z,43.43
2023-04-29T21:29:12.081Z,43.98
2023-04-29T21:31:39.114Z,44.03
2023-04-29T21:34:06.103Z,43.64
2023-04-29T21:36:33.153Z,43.45
2023-04-29T21:38:59.811Z,44.04
2023-04-29T21:41:31.917Z,43.09
2023-04-29T21:44:00.399Z,42.48
2023-04-29T21:46:28.384Z,43.24
2023-04-29T21:48:57.505Z,43.88
2023-04-29T21:51:24.648Z,44.09
2023-04-29T21:53:51.429Z,43.64
2023-04-29T21:56:18.786Z,44.18
2023-04-29T21:58:48.882Z,43.75
2023-04-29T22:01:26.905Z,44.85
2023-04-29T22:03:55.093Z,43.69
2023-04-29T22:06:22.405Z,44.23
2023-04-29T22:08:49.345Z,44.04
2023-04-29T22:11:16.081Z,43.88
2023-04-29T22:13:45.088Z,44.31
2023-04-29T22:16:12.305Z,43.79
2023-04-29T22:18:39.185Z,44.15
2023-04-29T22:21:06.757Z,44.33
2023-04-29T22:23:33.455Z,44.16
2023-04-29T22:26:00.066Z,43.38
2023-04-29T22:28:26.948Z,44.96
2023-04-29T22:30:53.772Z,43.96
2023-04-29T22:33:20.497Z,44.63
2023-04-29T22:35:47.217Z,44.17
2023-04-29T22:38:14.073Z,44.34
2023-04-29T22:40:41.082Z,44.12
2023-04-29T22:43:07.878Z,44.51
2023-04-29T22:45:34.631Z,44.03
2023-04-29T22:48:01.499Z,44.83
2023-04-29T22:50:28.157Z,44.98
2023-04-29T22:52:54.851Z,45.46
2023-04-29T22:55:21.837Z,45.25
2023-04-29T22:57:52.929Z,45.72
2023-04-29T23:00:19.867Z,45.86
2023-04-29T23:02:46.602Z,45.37
2023-04-29T23:05:13.350Z,44.81
2023-04-29T23:07:40.038Z,44.36
2023-04-29T23:10:07.112Z,45.20
2023-04-29T23:12:33.847Z,43.98
2023-04-29T23:15:00.615Z,44.84
2023-04-29T23:17:27.441Z,43.95
2023-04-29T23:19:54.435Z,43.96
2023-04-29T23:22:21.358Z,44.79
2023-04-29T23:24:48.205Z,44.73
2023-04-29T23:27:14.959Z,44.54
2023-04-29T23:29:41.797Z,45.97
2023-04-29T23:32:08.729Z,44.97
2023-04-29T23:34:35.576Z,46.20
2023-04-29T23:37:02.243Z,46.19
2023-04-29T23:39:28.964Z,46.13
2023-04-29T23:41:56.290Z,45.17
2023-04-29T23:44:23.284Z,45.35
2023-04-29T23:46:49.898Z,45.01
2023-04-29T23:49:16.631Z,45.66
2023-04-29T23:51:43.278Z,45.50
2023-04-29T23:54:10.016Z,45.00
2023-04-29T23:56:36.731Z,45.77
2023-04-29T23:59:03.564Z,45.48
